Time,TemperatureF,DewpointF,PressureIn,WindDirection,WindDirectionDegrees,WindSpeedMPH,WindSpeedGustMPH,Humidity,HourlyPrecipIn,Conditions,Clouds,dailyrainin,SolarRadiationWatts/m^2,SoftwareType,DateUTC
2015-08-27 00:00:00,50.0,48.0,-100.00,SSE,157,1.0,-999.0,93,-99.99,,,-99.99,0.000000,,2015-08-27 05:00:00,
2015-08-27 00:34:00,50.0,48.0,-100.00,SSE,157,1.0,-999.0,93,-99.99,,,-99.99,0.000000,,2015-08-27 05:34:00,
2015-08-27 00:44:00,50.0,48.0,-100.00,SSE,157,1.0,-999.0,93,-99.99,,,-99.99,0.000000,,2015-08-27 05:44:00,
2015-08-27 00:54:00,50.0,48.0,-100.00,SSE,157,1.0,-999.0,93,-99.99,,,-99.99,0.000000,,2015-08-27 05:54:00,
2015-08-27 01:00:00,47.0,46.0,-100.00,North,-9999,0.0,-999.0,93,-99.99,,,-99.99,0.000000,,2015-08-27 06:00:00,
2015-08-27 01:34:00,47.0,46.0,-100.00,North,-9999,0.0,-999.0,93,-99.99,,,-99.99,0.000000,,2015-08-27 06:34:00,
2015-08-27 01:44:00,47.0,46.0,-100.00,North,-9999,0.0,-999.0,93,-99.99,,,-99.99,0.000000,,2015-08-27 06:44:00,
2015-08-27 01:54:00,47.0,46.0,-100.00,North,-9999,0.0,-999.0,93,-99.99,,,-99.99,0.000000,,2015-08-27 06:54:00,
2015-08-27 03:00:00,45.0,43.0,-100.00,North,-9999,0.0,-999.0,94,-99.99,,,-99.99,0.000000,,2015-08-27 08:00:00,
2015-08-27 04:00:00,45.0,43.0,-100.00,North,-9999,0.0,-999.0,94,-99.99,,,-99.99,0.000000,,2015-08-27 09:00:00,
2015-08-27 04:34:00,45.0,43.0,-100.00,North,-9999,0.0,-999.0,94,-99.99,,,-99.99,0.000000,,2015-08-27 09:34:00,
2015-08-27 04:44:00,45.0,43.0,-100.00,North,-9999,0.0,-999.0,94,-99.99,,,-99.99,0.000000,,2015-08-27 09:44:00,
2015-08-27 04:54:00,45.0,43.0,-100.00,North,-9999,0.0,-999.0,94,-99.99,,,-99.99,0.000000,,2015-08-27 09:54:00,
2015-08-27 05:00:00,44.0,42.0,-100.00,North,0,0.0,-999.0,95,-99.99,,,-99.99,0.000000,,2015-08-27 10:00:00,
2015-08-27 05:34:00,44.0,42.0,-100.00,North,0,0.0,-999.0,95,-99.99,,,-99.99,0.000000,,2015-08-27 10:34:00,
2015-08-27 05:44:00,44.0,42.0,-100.00,North,0,0.0,-999.0,95,-99.99,,,-99.99,0.000000,,2015-08-27 10:44:00,
2015-08-27 05:54:00,44.0,42.0,-100.00,North,0,0.0,-999.0,95,-99.99,,,-99.99,0.000000,,2015-08-27 10:54:00,
2015-08-27 06:00:00,43.0,42.0,-100.00,North,0,0.0,-999.0,95,-99.99,,,-99.99,0.000000,,2015-08-27 11:00:00,
2015-08-27 06:34:00,43.0,42.0,-100.00,North,0,0.0,-999.0,95,-99.99,,,-99.99,0.000000,,2015-08-27 11:34:00,
2015-08-27 06:44:00,43.0,42.0,-100.00,North,0,0.0,-999.0,95,-99.99,,,-99.99,0.000000,,2015-08-27 11:44:00,
2015-08-27 06:54:00,43.0,42.0,-100.00,North,0,0.0,-999.0,95,-99.99,,,-99.99,0.000000,,2015-08-27 11:54:00,
2015-08-27 07:00:00,42.0,41.0,-100.00,North,-9999,0.0,-999.0,95,-99.99,,,-99.99,18.559999,,2015-08-27 12:00:00,
2015-08-27 07:34:00,42.0,41.0,-100.00,North,-9999,0.0,-999.0,95,-99.99,,,-99.99,18.559999,,2015-08-27 12:34:00,
2015-08-27 07:44:00,42.0,41.0,-100.00,North,-9999,0.0,-999.0,95,-99.99,,,-99.99,18.559999,,2015-08-27 12:44:00,
2015-08-27 07:54:00,42.0,41.0,-100.00,North,-9999,0.0,-999.0,95,-99.99,,,-99.99,18.559999,,2015-08-27 12:54:00,
2015-08-27 08:00:00,50.0,48.0,-100.00,SE,135,0.0,-999.0,95,-99.99,,,-99.99,73.080002,,2015-08-27 13:00:00,
2015-08-27 08:34:00,50.0,48.0,-100.00,SE,135,0.0,-999.0,95,-99.99,,,-99.99,73.080002,,2015-08-27 13:34:00,
2015-08-27 08:44:00,50.0,48.0,-100.00,SE,135,0.0,-999.0,95,-99.99,,,-99.99,73.080002,,2015-08-27 13:44:00,
2015-08-27 08:54:00,50.0,48.0,-100.00,SE,135,0.0,-999.0,95,-99.99,,,-99.99,73.080002,,2015-08-27 13:54:00,
2015-08-27 09:00:00,56.0,55.0,-100.00,West,270,1.0,-999.0,95,-99.99,,,-99.99,141.520004,,2015-08-27 14:00:00,
2015-08-27 09:34:00,56.0,55.0,-100.00,West,270,1.0,-999.0,95,-99.99,,,-99.99,141.520004,,2015-08-27 14:34:00,
2015-08-27 09:44:00,56.0,55.0,-100.00,West,270,1.0,-999.0,95,-99.99,,,-99.99,141.520004,,2015-08-27 14:44:00,
2015-08-27 09:54:00,56.0,55.0,-100.00,West,270,1.0,-999.0,95,-99.99,,,-99.99,141.520004,,2015-08-27 14:54:00,
2015-08-27 10:00:00,59.0,56.0,-100.00,West,270,1.0,-999.0,91,-99.99,,,-99.99,309.720001,,2015-08-27 15:00:00,
2015-08-27 10:34:00,59.0,56.0,-100.00,West,270,1.0,-999.0,91,-99.99,,,-99.99,309.720001,,2015-08-27 15:34:00,
2015-08-27 10:44:00,59.0,56.0,-100.00,West,270,1.0,-999.0,91,-99.99,,,-99.99,309.720001,,2015-08-27 15:44:00,
2015-08-27 10:53:00,59.0,56.0,-100.00,West,270,1.0,-999.0,91,-99.99,,,-99.99,309.720001,,2015-08-27 15:53:00,
2015-08-27 11:00:00,65.0,58.0,-100.00,SW,225,2.0,-999.0,76,-99.99,,,-99.99,581.159973,,2015-08-27 16:00:00,
2015-08-27 11:34:00,65.0,58.0,-100.00,SW,225,2.0,-999.0,76,-99.99,,,-99.99,581.159973,,2015-08-27 16:34:00,
2015-08-27 11:44:00,65.0,58.0,-100.00,SW,225,2.0,-999.0,76,-99.99,,,-99.99,581.159973,,2015-08-27 16:44:00,
2015-08-27 11:54:00,65.0,58.0,-100.00,SW,225,2.0,-999.0,76,-99.99,,,-99.99,581.159973,,2015-08-27 16:54:00,
2015-08-27 12:00:00,63.0,56.0,-100.00,NW,315,3.0,-999.0,76,-99.99,,,-99.99,671.640015,,2015-08-27 17:00:00,
2015-08-27 12:44:00,63.0,56.0,-100.00,NW,315,3.0,-999.0,76,-99.99,,,-99.99,671.640015,,2015-08-27 17:44:00,
2015-08-27 12:54:00,63.0,56.0,-100.00,NW,315,3.0,-999.0,76,-99.99,,,-99.99,671.640015,,2015-08-27 17:54:00,
2015-08-27 13:00:00,64.0,56.0,-100.00,WNW,292,3.0,-999.0,74,-99.99,,,-99.99,754.000000,,2015-08-27 18:00:00,
2015-08-27 13:34:00,64.0,56.0,-100.00,WNW,292,3.0,-999.0,74,-99.99,,,-99.99,754.000000,,2015-08-27 18:34:00,
2015-08-27 13:44:00,64.0,56.0,-100.00,WNW,292,3.0,-999.0,74,-99.99,,,-99.99,754.000000,,2015-08-27 18:44:00,
2015-08-27 13:55:00,64.0,56.0,-100.00,WNW,292,3.0,-999.0,74,-99.99,,,-99.99,754.000000,,2015-08-27 18:55:00,
2015-08-27 14:00:00,67.0,57.0,-100.00,NW,315,2.0,-999.0,70,-99.99,,,-99.99,730.799988,,2015-08-27 19:00:00,
2015-08-27 15:00:00,69.0,57.0,-100.00,WNW,292,3.0,-999.0,66,-99.99,,,-99.99,685.559998,,2015-08-27 20:00:00,
2015-08-27 16:36:00,73.0,59.0,-100.00,SE,135,3.0,-999.0,62,-99.99,,,-99.99,541.719971,,2015-08-27 21:36:00,
2015-08-27 16:44:00,73.0,59.0,-100.00,SE,135,3.0,-999.0,62,-99.99,,,-99.99,541.719971,,2015-08-27 21:44:00,
2015-08-27 16:54:00,73.0,59.0,-100.00,SE,135,3.0,-999.0,62,-99.99,,,-99.99,541.719971,,2015-08-27 21:54:00,